createdAt,value
2019-05-02T00:01:21.940Z,8.80
2019-05-02T00:03:51.292Z,8.80
2019-05-02T00:06:21.115Z,8.80
2019-05-02T00:08:50.731Z,8.80
2019-05-02T00:11:21.604Z,8.70
2019-05-02T00:13:51.026Z,8.80
2019-05-02T00:16:20.467Z,8.80
2019-05-02T00:18:49.831Z,8.80
2019-05-02T00:21:19.598Z,8.70
2019-05-02T00:23:49.332Z,8.60
2019-05-02T00:26:18.674Z,8.60
2019-05-02T00:28:49.866Z,8.50
2019-05-02T00:31:21.930Z,8.50
2019-05-02T00:33:51.273Z,8.50
2019-05-02T00:36:20.611Z,8.50
2019-05-02T00:38:49.978Z,8.50
2019-05-02T00:41:20.911Z,8.50
2019-05-02T00:43:50.297Z,8.40
2019-05-02T00:46:19.712Z,8.50
2019-05-02T00:48:59.516Z,8.40
2019-05-02T00:51:26.803Z,8.40
2019-05-02T00:53:56.312Z,8.40
2019-05-02T00:56:26.621Z,8.30
2019-05-02T00:58:56.490Z,8.30
2019-05-02T01:01:47.400Z,8.20
2019-05-02T01:04:27.655Z,8.20
2019-05-02T01:06:54.429Z,8.20
2019-05-02T01:09:23.796Z,8.10
2019-05-02T01:11:53.278Z,8.10
2019-05-02T01:14:22.640Z,8.10
2019-05-02T01:16:54.276Z,8.10
2019-05-02T01:19:23.020Z,8.00
2019-05-02T01:21:52.297Z,8.00
2019-05-02T01:24:21.661Z,8.00
2019-05-02T01:27:04.643Z,7.90
2019-05-02T01:29:39.728Z,7.90
2019-05-02T01:32:25.239Z,7.80
2019-05-02T01:35:01.632Z,7.80
2019-05-02T01:37:54.806Z,7.80
2019-05-02T01:40:23.777Z,7.70
2019-05-02T01:42:56.284Z,7.70
2019-05-02T01:45:25.652Z,7.60
2019-05-02T01:47:54.949Z,7.60
2019-05-02T01:50:24.286Z,7.60
2019-05-02T01:52:58.106Z,7.50
2019-05-02T01:55:24.750Z,7.50
2019-05-02T01:57:54.097Z,7.50
2019-05-02T02:00:23.315Z,7.50
2019-05-02T02:02:52.730Z,7.50
2019-05-02T02:05:22.104Z,7.50
2019-05-02T02:07:55.548Z,7.50
2019-05-02T02:10:22.886Z,7.50
2019-05-02T02:13:03.690Z,7.40
2019-05-02T02:15:25.094Z,7.40
2019-05-02T02:17:54.283Z,7.30
2019-05-02T02:20:25.447Z,7.30
2019-05-02T02:23:02.738Z,7.30
2019-05-02T02:25:45.592Z,7.30
2019-05-02T02:28:14.897Z,7.30
2019-05-02T02:30:44.393Z,7.30
2019-05-02T02:33:13.749Z,7.20
2019-05-02T02:35:49.573Z,7.10
2019-05-02T02:38:14.144Z,7.10
2019-05-02T02:40:43.429Z,7.00
2019-05-02T02:43:32.442Z,6.90
2019-05-02T02:46:07.011Z,6.90
2019-05-02T02:48:40.539Z,6.90
2019-05-02T02:51:07.871Z,6.80
2019-05-02T02:53:37.194Z,6.70
2019-05-02T02:56:07.756Z,6.70
2019-05-02T02:58:45.659Z,6.70
2019-05-02T03:01:08.804Z,6.70
2019-05-02T03:03:38.182Z,6.70
2019-05-02T03:06:08.288Z,6.80
2019-05-02T03:08:46.632Z,6.80
2019-05-02T03:11:22.316Z,6.80
2019-05-02T03:14:09.738Z,6.80
2019-05-02T03:16:46.035Z,6.80
2019-05-02T03:19:14.616Z,6.80
2019-05-02T03:21:54.269Z,6.80
2019-05-02T03:24:26.389Z,6.80
2019-05-02T03:26:58.408Z,6.80
2019-05-02T03:29:39.717Z,6.90
2019-05-02T03:32:25.968Z,6.90
2019-05-02T03:34:45.309Z,6.90
2019-05-02T03:37:03.081Z,7.00
2019-05-02T03:39:31.721Z,7.00
2019-05-02T03:42:03.000Z,7.00
2019-05-02T03:44:32.291Z,7.00
2019-05-02T03:47:04.487Z,7.00
2019-05-02T03:49:32.697Z,7.00
2019-05-02T03:52:03.659Z,7.10
2019-05-02T03:54:33.043Z,7.10
2019-05-02T03:57:02.658Z,7.10
2019-05-02T03:59:38.964Z,7.20
2019-05-02T04:02:03.006Z,7.30
2019-05-02T04:04:32.619Z,7.30
2019-05-02T04:07:03.475Z,7.30
2019-05-02T04:09:38.719Z,7.30
2019-05-02T04:12:11.694Z,7.30
2019-05-02T04:14:38.903Z,7.40
2019-05-02T04:17:10.650Z,7.40
2019-05-02T04:19:40.604Z,7.50
2019-05-02T04:22:11.940Z,7.50
2019-05-02T04:24:47.918Z,7.60
2019-05-02T04:27:13.839Z,7.60
2019-05-02T04:29:43.419Z,7.60
2019-05-02T04:32:14.543Z,7.70
2019-05-02T04:34:48.846Z,7.70
2019-05-02T04:37:14.804Z,7.80
2019-05-02T04:39:44.127Z,7.80
2019-05-02T04:42:19.615Z,7.90
2019-05-02T04:45:08.801Z,7.90
2019-05-02T04:47:20.678Z,8.00
2019-05-02T04:49:51.339Z,8.10
2019-05-02T04:52:21.006Z,8.20
2019-05-02T04:54:48.942Z,8.20
2019-05-02T04:57:18.927Z,8.40
2019-05-02T04:59:50.615Z,8.50
2019-05-02T05:02:21.187Z,8.60
2019-05-02T05:04:50.727Z,8.60
2019-05-02T05:07:20.116Z,8.60
2019-05-02T05:09:57.139Z,8.60
2019-05-02T05:12:20.489Z,8.60
2019-05-02T05:14:52.720Z,8.70
2019-05-02T05:17:25.132Z,8.80
2019-05-02T05:19:53.209Z,8.90
2019-05-02T05:22:22.640Z,8.90
2019-05-02T05:25:01.627Z,9.00
2019-05-02T05:27:41.538Z,9.10
2019-05-02T05:30:15.501Z,9.20
2019-05-02T05:32:42.406Z,9.20
2019-05-02T05:35:12.960Z,9.30
2019-05-02T05:37:43.239Z,9.40
2019-05-02T05:40:13.403Z,9.50
2019-05-02T05:42:42.804Z,9.40
2019-05-02T05:45:13.980Z,9.50
2019-05-02T05:47:43.308Z,9.50
2019-05-02T05:50:12.827Z,9.50
2019-05-02T05:52:43.257Z,9.50
2019-05-02T05:55:17.126Z,9.50
2019-05-02T05:57:44.158Z,9.50
2019-05-02T06:00:18.669Z,9.60
2019-05-02T06:02:53.890Z,9.50
2019-05-02T06:05:17.469Z,9.50
2019-05-02T06:07:47.435Z,9.40
2019-05-02T06:10:17.294Z,9.50
2019-05-02T06:12:46.697Z,9.50
2019-05-02T06:15:16.020Z,9.70
2019-05-02T06:17:45.462Z,9.70
2019-05-02T06:20:15.041Z,9.70
2019-05-02T06:22:44.352Z,9.80
2019-05-02T06:25:14.243Z,9.90
2019-05-02T06:27:43.549Z,10.00
2019-05-02T06:30:13.315Z,10.10
2019-05-02T06:32:42.620Z,10.20
2019-05-02T06:35:17.173Z,10.20
2019-05-02T06:37:50.089Z,10.20
2019-05-02T06:40:17.303Z,10.20
2019-05-02T06:42:46.704Z,10.30
2019-05-02T06:45:16.217Z,10.30
2019-05-02T06:47:45.629Z,10.40
2019-05-02T06:50:15.404Z,10.30
2019-05-02T06:52:44.684Z,10.30
2019-05-02T06:55:14.045Z,10.20
2019-05-02T06:57:43.307Z,10.30
2019-05-02T07:00:13.312Z,10.30
2019-05-02T07:02:42.638Z,10.30
2019-05-02T07:05:12.073Z,10.30
2019-05-02T07:07:42.499Z,10.30
2019-05-02T07:10:12.149Z,10.30
2019-05-02T07:12:41.475Z,10.30
2019-05-02T07:15:25.882Z,10.40
2019-05-02T07:17:59.142Z,10.40
2019-05-02T07:20:28.816Z,10.50
2019-05-02T07:22:58.160Z,10.60
2019-05-02T07:25:27.569Z,10.70
2019-05-02T07:27:56.889Z,10.60
2019-05-02T07:30:30.023Z,10.70
2019-05-02T07:33:01.214Z,10.80
2019-05-02T07:35:28.293Z,10.80
2019-05-02T07:37:57.624Z,10.80
2019-05-02T07:40:26.956Z,10.80
2019-05-02T07:42:58.588Z,10.90
2019-05-02T07:45:30.981Z,10.90
2019-05-02T07:48:01.586Z,11.00
2019-05-02T07:50:31.112Z,11.10
2019-05-02T07:53:04.453Z,11.10
2019-05-02T07:55:35.328Z,11.00
2019-05-02T07:58:06.971Z,11.10
2019-05-02T08:00:37.098Z,11.30
2019-05-02T08:03:17.465Z,11.40
2019-05-02T08:05:46.952Z,11.50
2019-05-02T08:08:16.301Z,11.80
2019-05-02T08:10:45.740Z,12.00
2019-05-02T08:13:17.578Z,12.10
2019-05-02T08:15:50.910Z,12.30
2019-05-02T08:18:18.810Z,12.40
2019-05-02T08:20:50.940Z,12.50
2019-05-02T08:23:20.647Z,12.30
2019-05-02T08:25:50.670Z,12.30
2019-05-02T08:28:28.925Z,12.40
2019-05-02T08:30:58.830Z,12.50
2019-05-02T08:33:29.110Z,12.60
2019-05-02T08:35:59.235Z,12.70
2019-05-02T08:38:28.504Z,12.80
2019-05-02T08:40:57.800Z,12.90
2019-05-02T08:43:27.223Z,13.00
2019-05-02T08:45:56.605Z,13.10
2019-05-02T08:48:25.950Z,13.30
2019-05-02T08:50:55.246Z,13.60
2019-05-02T08:53:24.474Z,13.70
2019-05-02T08:55:53.860Z,13.60
2019-05-02T08:58:23.907Z,13.80
2019-05-02T09:00:53.222Z,14.00
2019-05-02T09:03:23.148Z,14.10
2019-05-02T09:06:04.959Z,14.20
2019-05-02T09:08:23.643Z,14.30
2019-05-02T09:10:53.069Z,14.30
2019-05-02T09:13:26.479Z,14.40
2019-05-02T09:15:54.305Z,14.30
2019-05-02T09:18:30.085Z,14.20
2019-05-02T09:20:56.566Z,14.20
2019-05-02T09:23:27.527Z,14.20
2019-05-02T09:25:57.331Z,14.30
2019-05-02T09:28:26.633Z,14.50
2019-05-02T09:30:57.379Z,14.50
2019-05-02T09:33:27.020Z,14.70
2019-05-02T09:35:56.341Z,14.80
2019-05-02T09:38:25.704Z,14.90
2019-05-02T09:40:56.286Z,15.00
2019-05-02T09:43:29.357Z,15.10
2019-05-02T09:45:56.813Z,14.80
2019-05-02T09:48:26.977Z,14.50
2019-05-02T09:50:58.080Z,14.70
2019-05-02T09:53:27.736Z,14.90
2019-05-02T09:55:58.063Z,15.10
2019-05-02T09:58:27.391Z,15.10
2019-05-02T10:01:02.732Z,15.10
2019-05-02T10:03:33.032Z,15.10
2019-05-02T10:06:03.186Z,15.10
2019-05-02T10:08:32.767Z,15.10
2019-05-02T10:11:02.958Z,15.10
2019-05-02T10:13:33.658Z,15.20
2019-05-02T10:16:02.953Z,15.20
2019-05-02T10:18:32.978Z,15.20
2019-05-02T10:21:03.141Z,15.30
2019-05-02T10:23:32.709Z,15.30
2019-05-02T10:26:02.856Z,15.20
2019-05-02T10:28:32.419Z,15.10
2019-05-02T10:31:02.305Z,15.10
2019-05-02T10:33:35.828Z,15.20
2019-05-02T10:36:03.384Z,15.20
2019-05-02T10:38:36.436Z,15.30
2019-05-02T10:41:05.844Z,15.50
2019-05-02T10:43:35.234Z,15.50
2019-05-02T10:46:12.555Z,15.60
2019-05-02T10:48:47.401Z,15.30
2019-05-02T10:51:35.428Z,15.20
2019-05-02T10:54:08.160Z,15.10
2019-05-02T10:56:37.496Z,15.40
2019-05-02T10:59:06.895Z,15.60
2019-05-02T11:01:55.121Z,15.70
2019-05-02T11:04:29.189Z,15.80
2019-05-02T11:06:56.815Z,15.60
2019-05-02T11:09:26.578Z,15.70
2019-05-02T11:11:56.084Z,15.70
2019-05-02T11:14:37.415Z,15.80
2019-05-02T11:17:17.458Z,16.00
2019-05-02T11:19:54.322Z,16.10
2019-05-02T11:22:23.621Z,16.20
2019-05-02T11:24:52.995Z,16.20
2019-05-02T11:27:22.335Z,16.30
2019-05-02T11:29:52.617Z,16.30
2019-05-02T11:32:24.608Z,16.40
2019-05-02T11:34:53.924Z,16.40
2019-05-02T11:37:23.185Z,16.30
2019-05-02T11:39:58.340Z,16.10
2019-05-02T11:42:27.178Z,16.10
2019-05-02T11:44:54.694Z,16.10
2019-05-02T11:47:26.550Z,16.20
2019-05-02T11:49:56.007Z,16.10
2019-05-02T11:52:27.551Z,16.30
2019-05-02T11:54:56.690Z,16.50
2019-05-02T11:57:28.468Z,16.60
2019-05-02T11:59:59.379Z,16.60
2019-05-02T12:02:49.142Z,16.70
2019-05-02T12:05:22.086Z,16.90
2019-05-02T12:07:52.640Z,16.80
2019-05-02T12:10:22.247Z,16.70
2019-05-02T12:12:52.689Z,16.60
2019-05-02T12:15:22.092Z,16.60
2019-05-02T12:17:51.690Z,16.70
2019-05-02T12:20:22.747Z,16.60
2019-05-02T12:22:52.779Z,16.60
2019-05-02T12:25:22.403Z,16.60
2019-05-02T12:27:52.689Z,16.90
2019-05-02T12:30:23.976Z,17.20
2019-05-02T12:32:53.653Z,17.50
2019-05-02T12:35:23.102Z,17.80
2019-05-02T12:37:55.211Z,17.90
2019-05-02T12:40:23.445Z,17.80
2019-05-02T12:42:53.238Z,17.90
2019-05-02T12:45:22.623Z,17.80
2019-05-02T12:47:52.345Z,17.70
2019-05-02T12:50:22.576Z,17.40
2019-05-02T12:52:52.491Z,17.40
2019-05-02T12:55:24.565Z,17.40
2019-05-02T12:57:53.885Z,17.40
2019-05-02T13:00:23.194Z,17.40
2019-05-02T13:03:14.520Z,17.40
2019-05-02T13:05:42.643Z,17.40
2019-05-02T13:08:12.414Z,17.50
2019-05-02T13:11:02.163Z,17.50
2019-05-02T13:13:28.134Z,17.70
2019-05-02T13:16:00.586Z,17.70
2019-05-02T13:18:34.618Z,17.80
2019-05-02T13:21:02.206Z,17.70
2019-05-02T13:23:49.209Z,17.70
2019-05-02T13:26:22.921Z,17.60
2019-05-02T13:28:51.611Z,17.40
2019-05-02T13:31:32.042Z,17.30
2019-05-02T13:34:14.827Z,17.10
2019-05-02T13:36:47.257Z,16.90
2019-05-02T13:39:35.508Z,16.80
2019-05-02T13:42:04.853Z,16.70
2019-05-02T13:44:37.055Z,16.50
2019-05-02T13:47:09.770Z,16.40
2019-05-02T13:49:52.887Z,16.20
2019-05-02T13:52:11.780Z,15.90
2019-05-02T13:54:42.642Z,15.40
2019-05-02T13:57:12.314Z,15.10
2019-05-02T13:59:41.801Z,15.00
2019-05-02T14:02:31.874Z,14.80
2019-05-02T14:05:02.436Z,14.60
2019-05-02T14:07:32.632Z,14.60
2019-05-02T14:10:06.037Z,14.40
2019-05-02T14:12:52.869Z,14.50
2019-05-02T14:15:25.132Z,14.40
2019-05-02T14:17:54.388Z,14.50
2019-05-02T14:20:23.964Z,14.50
2019-05-02T14:22:53.319Z,14.60
2019-05-02T14:25:22.716Z,14.70
2019-05-02T14:27:55.465Z,14.80
2019-05-02T14:30:35.961Z,14.90
2019-05-02T14:32:57.387Z,14.70
2019-05-02T14:35:32.593Z,14.60
2019-05-02T14:38:13.371Z,14.60
2019-05-02T14:41:05.287Z,14.60
2019-05-02T14:43:53.604Z,14.60
2019-05-02T14:46:34.031Z,14.70
2019-05-02T14:48:57.356Z,14.70
2019-05-02T14:51:27.833Z,14.80
2019-05-02T14:54:02.560Z,14.70
2019-05-02T14:56:56.479Z,14.60
2019-05-02T14:59:28.685Z,14.50
2019-05-02T15:02:03.898Z,14.40
2019-05-02T15:04:32.142Z,14.10
2019-05-02T15:07:02.064Z,14.00
2019-05-02T15:09:32.716Z,13.90
2019-05-02T15:12:03.694Z,13.90
2019-05-02T15:14:35.034Z,13.90
2019-05-02T15:17:04.961Z,13.90
2019-05-02T15:19:34.326Z,13.80
2019-05-02T15:22:04.189Z,13.60
2019-05-02T15:24:37.601Z,13.50
2019-05-02T15:27:12.209Z,13.40
2019-05-02T15:29:35.575Z,13.10
2019-05-02T15:32:37.272Z,12.90
2019-05-02T15:35:17.802Z,12.80
2019-05-02T15:37:46.287Z,12.80
2019-05-02T15:42:56.660Z,12.80
2019-05-02T15:45:24.181Z,12.80
2019-05-02T15:47:53.587Z,12.80
2019-05-02T15:50:25.572Z,12.90
2019-05-02T15:53:03.212Z,12.80
2019-05-02T15:55:32.391Z,12.90
2019-05-02T15:58:02.573Z,12.90
2019-05-02T16:00:35.988Z,12.80
2019-05-02T16:03:05.637Z,12.70
2019-05-02T16:05:36.689Z,12.80
2019-05-02T16:08:08.957Z,12.80
2019-05-02T16:10:38.762Z,12.80
2019-05-02T16:13:15.738Z,12.80
2019-05-02T16:15:40.233Z,12.80
2019-05-02T16:18:10.123Z,12.80
2019-05-02T16:21:01.575Z,12.80
2019-05-02T16:23:29.649Z,12.80
2019-05-02T16:25:52.365Z,12.70
2019-05-02T16:28:21.869Z,12.60
2019-05-02T16:30:53.144Z,12.60
2019-05-02T16:33:22.824Z,12.60
2019-05-02T16:35:54.462Z,12.50
2019-05-02T16:38:26.727Z,12.40
2019-05-02T16:40:57.221Z,12.30
2019-05-02T16:43:28.659Z,12.30
2019-05-02T16:45:58.016Z,12.30
2019-05-02T16:48:32.396Z,12.20
2019-05-02T16:50:58.259Z,12.20
2019-05-02T16:53:27.591Z,12.20
2019-05-02T16:55:58.515Z,12.20
2019-05-02T16:58:31.896Z,12.20
2019-05-02T17:00:59.509Z,12.20
2019-05-02T17:03:31.496Z,12.20
2019-05-02T17:06:01.751Z,12.20
2019-05-02T17:08:57.169Z,12.20
2019-05-02T17:11:27.809Z,12.30
2019-05-02T17:13:56.428Z,12.30
2019-05-02T17:16:26.153Z,12.30
2019-05-02T17:18:56.637Z,12.30
2019-05-02T17:21:26.776Z,12.20
2019-05-02T17:23:57.249Z,12.20
2019-05-02T17:26:26.689Z,12.30
2019-05-02T17:28:56.025Z,12.30
2019-05-02T17:31:25.794Z,12.20
2019-05-02T17:33:55.149Z,12.20
2019-05-02T17:36:28.402Z,12.20
2019-05-02T17:39:06.257Z,12.10
2019-05-02T17:41:37.065Z,12.20
2019-05-02T17:44:06.039Z,12.10
2019-05-02T17:46:42.837Z,12.10
2019-05-02T17:49:12.409Z,12.10
2019-05-02T17:52:05.770Z,12.00
2019-05-02T17:54:31.747Z,12.10
2019-05-02T17:57:02.193Z,12.00
2019-05-02T17:59:34.647Z,12.10
2019-05-02T18:02:06.628Z,12.00
2019-05-02T18:04:35.547Z,12.10
2019-05-02T18:07:04.827Z,12.10
2019-05-02T18:09:35.160Z,12.00
2019-05-02T18:12:07.099Z,12.00
2019-05-02T18:14:35.897Z,12.00
2019-05-02T18:17:05.512Z,12.00
2019-05-02T18:19:34.943Z,12.00
2019-05-02T18:22:08.325Z,11.90
2019-05-02T18:24:37.459Z,11.90
2019-05-02T18:27:06.941Z,12.00
2019-05-02T18:29:41.588Z,11.90
2019-05-02T18:32:08.283Z,12.00
2019-05-02T18:34:37.666Z,12.00
2019-05-02T18:37:07.312Z,12.00
2019-05-02T18:39:44.752Z,12.00
2019-05-02T18:42:08.153Z,11.90
2019-05-02T18:44:37.394Z,11.90
2019-05-02T18:47:06.912Z,11.80
2019-05-02T18:49:37.219Z,11.90
2019-05-02T18:52:06.612Z,11.80
2019-05-02T18:54:38.606Z,11.80
2019-05-02T18:57:11.808Z,11.90
2019-05-02T18:59:39.619Z,11.90
2019-05-02T19:02:10.818Z,11.90
2019-05-02T19:04:42.341Z,11.80
2019-05-02T19:07:15.759Z,11.90
2019-05-02T19:09:50.969Z,11.80
2019-05-02T19:12:22.245Z,11.80
2019-05-02T19:14:49.782Z,11.70
2019-05-02T19:17:21.939Z,11.80
2019-05-02T19:19:52.719Z,11.80
2019-05-02T19:22:22.946Z,11.70
2019-05-02T19:24:52.716Z,11.70
2019-05-02T19:27:42.910Z,11.60
2019-05-02T19:30:13.519Z,11.60
2019-05-02T19:32:43.620Z,11.60
2019-05-02T19:35:13.673Z,11.60
2019-05-02T19:37:47.561Z,11.60
2019-05-02T19:40:20.071Z,11.50
2019-05-02T19:43:02.432Z,11.60
2019-05-02T19:45:28.746Z,11.50
2019-05-02T19:47:59.812Z,11.50
2019-05-02T19:50:43.979Z,11.50
2019-05-02T19:53:18.108Z,11.50
2019-05-02T19:55:43.937Z,11.50
2019-05-02T19:58:13.894Z,11.50
2019-05-02T20:00:46.294Z,11.50
2019-05-02T20:03:21.762Z,11.40
2019-05-02T20:05:56.629Z,11.40
2019-05-02T20:08:24.618Z,11.40
2019-05-02T20:10:58.266Z,11.40
2019-05-02T20:13:30.629Z,11.50
2019-05-02T20:16:08.299Z,11.50
2019-05-02T20:18:45.576Z,11.40
2019-05-02T20:21:25.971Z,11.40
2019-05-02T20:23:51.787Z,11.40
2019-05-02T20:26:22.084Z,11.40
2019-05-02T20:28:52.746Z,11.40
2019-05-02T20:31:22.375Z,11.30
2019-05-02T20:33:52.089Z,11.30
2019-05-02T20:36:22.788Z,11.30
2019-05-02T20:38:52.752Z,11.30
2019-05-02T20:41:22.411Z,11.20
2019-05-02T20:43:52.065Z,11.20
2019-05-02T20:46:21.976Z,11.20
2019-05-02T20:48:52.638Z,11.10
2019-05-02T20:51:22.761Z,11.00
2019-05-02T20:53:52.709Z,10.90
2019-05-02T20:56:22.983Z,10.90
2019-05-02T20:58:53.355Z,10.80
2019-05-02T21:01:22.883Z,10.80
2019-05-02T21:03:52.312Z,10.80
2019-05-02T21:06:47.250Z,10.70
2019-05-02T21:09:45.153Z,10.60
2019-05-02T21:12:14.486Z,10.50
2019-05-02T21:14:43.800Z,10.50
2019-05-02T21:17:13.226Z,10.50
2019-05-02T21:19:42.553Z,10.40
2019-05-02T21:22:19.216Z,10.40
2019-05-02T21:24:48.998Z,10.30
2019-05-02T21:27:18.276Z,10.30
2019-05-02T21:29:47.627Z,10.30
2019-05-02T21:32:17.502Z,10.30
2019-05-02T21:34:47.259Z,10.30
2019-05-02T21:37:16.878Z,10.20
2019-05-02T21:39:47.530Z,10.10
2019-05-02T21:42:16.948Z,10.10
2019-05-02T21:44:46.191Z,10.10
2019-05-02T21:47:15.401Z,10.00
2019-05-02T21:49:56.588Z,10.00
2019-05-02T21:52:45.158Z,9.90
2019-05-02T21:55:21.905Z,9.90
2019-05-02T21:57:52.159Z,10.00
2019-05-02T22:00:42.233Z,9.90
2019-05-02T22:03:12.597Z,9.80
2019-05-02T22:05:42.386Z,9.80
2019-05-02T22:08:12.202Z,9.80
2019-05-02T22:10:42.681Z,9.70
2019-05-02T22:13:12.413Z,9.70
2019-05-02T22:15:42.123Z,9.70
2019-05-02T22:18:11.372Z,9.60
2019-05-02T22:20:42.783Z,9.60
2019-05-02T22:23:12.310Z,9.60
2019-05-02T22:25:42.009Z,9.50
2019-05-02T22:28:12.583Z,9.40
2019-05-02T22:30:42.909Z,9.40
2019-05-02T22:33:12.508Z,9.40
2019-05-02T22:35:43.377Z,9.40
2019-05-02T22:38:22.208Z,9.30
2019-05-02T22:40:53.707Z,9.30
2019-05-02T22:43:23.165Z,9.30
2019-05-02T22:45:52.572Z,9.20
2019-05-02T22:48:22.725Z,9.20
2019-05-02T22:50:52.301Z,9.20
2019-05-02T22:53:21.654Z,9.20
2019-05-02T22:55:53.209Z,9.20
2019-05-02T22:58:22.525Z,9.20
2019-05-02T23:00:52.336Z,9.30
2019-05-02T23:03:24.120Z,9.30
2019-05-02T23:05:52.764Z,9.30
2019-05-02T23:08:22.113Z,9.20
2019-05-02T23:10:51.946Z,9.20
2019-05-02T23:13:21.981Z,9.10
2019-05-02T23:15:52.338Z,9.10
2019-05-02T23:18:22.787Z,9.10
2019-05-02T23:20:52.609Z,9.10
2019-05-02T23:23:24.194Z,9.10
2019-05-02T23:26:15.097Z,9.00
2019-05-02T23:28:46.747Z,9.00
2019-05-02T23:31:16.347Z,9.00
2019-05-02T23:34:02.027Z,9.00
2019-05-02T23:36:32.870Z,8.90
2019-05-02T23:39:02.531Z,9.00
2019-05-02T23:41:32.900Z,9.10
2019-05-02T23:44:02.996Z,9.00
2019-05-02T23:46:32.296Z,9.00
2019-05-02T23:49:02.120Z,9.00
2019-05-02T23:51:32.078Z,9.10
2019-05-02T23:54:02.093Z,9.10
2019-05-02T23:56:32.505Z,9.10
2019-05-02T23:59:02.703Z,9.10
